createdAt,value
2023-03-06T00:00:36.977Z,4.50
2023-03-06T00:03:06.809Z,4.50
2023-03-06T00:05:35.329Z,4.50
2023-03-06T00:08:04.257Z,4.50
2023-03-06T00:10:33.759Z,4.50
2023-03-06T00:13:03.683Z,4.50
2023-03-06T00:15:32.777Z,4.50
2023-03-06T00:18:01.520Z,4.50
2023-03-06T00:20:31.219Z,4.50
2023-03-06T00:23:00.052Z,4.50
2023-03-06T00:25:28.343Z,4.50
2023-03-06T00:27:56.725Z,4.40
2023-03-06T00:30:26.210Z,4.40
2023-03-06T00:32:55.218Z,4.40
2023-03-06T00:35:23.441Z,4.40
2023-03-06T00:37:53.053Z,4.40
2023-03-06T00:40:22.425Z,4.40
2023-03-06T00:42:50.967Z,4.40
2023-03-06T00:45:19.382Z,4.40
2023-03-06T00:47:47.670Z,4.40
2023-03-06T00:50:15.955Z,4.40
2023-03-06T00:52:44.212Z,4.40
2023-03-06T00:55:13.810Z,4.40
2023-03-06T00:57:42.208Z,4.40
2023-03-06T01:00:12.285Z,4.40
2023-03-06T01:02:41.043Z,4.40
2023-03-06T01:05:10.821Z,4.40
2023-03-06T01:07:39.481Z,4.40
2023-03-06T01:10:09.047Z,4.40
2023-03-06T01:12:38.956Z,4.40
2023-03-06T01:15:09.375Z,4.40
2023-03-06T01:17:37.708Z,4.40
2023-03-06T01:20:06.874Z,4.30
2023-03-06T01:22:35.109Z,4.30
2023-03-06T01:25:03.385Z,4.30
2023-03-06T01:27:31.835Z,4.30
2023-03-06T01:30:02.063Z,4.30
2023-03-06T01:32:30.823Z,4.30
2023-03-06T01:34:59.309Z,4.30
2023-03-06T01:37:27.585Z,4.40
2023-03-06T01:39:55.967Z,4.30
2023-03-06T01:42:24.387Z,4.30
2023-03-06T01:45:06.504Z,4.30
2023-03-06T01:47:34.888Z,4.30
2023-03-06T01:50:05.217Z,4.30
2023-03-06T01:52:38.897Z,4.30
2023-03-06T01:55:10.428Z,4.20
2023-03-06T01:57:42.377Z,4.20
2023-03-06T02:00:15.700Z,4.30
2023-03-06T02:02:47.788Z,4.20
2023-03-06T02:05:16.250Z,4.30
2023-03-06T02:07:46.765Z,4.20
2023-03-06T02:10:15.736Z,4.20
2023-03-06T02:12:45.259Z,4.20
2023-03-06T02:15:17.496Z,4.20
2023-03-06T02:17:47.906Z,4.20
2023-03-06T02:20:22.695Z,4.20
2023-03-06T02:22:57.678Z,4.20
2023-03-06T02:25:37.717Z,4.20
2023-03-06T02:28:06.972Z,4.10
2023-03-06T02:30:36.940Z,4.10
2023-03-06T02:33:06.501Z,4.10
2023-03-06T02:35:37.194Z,4.10
2023-03-06T02:38:10.658Z,4.10
2023-03-06T02:40:40.230Z,4.10
2023-03-06T02:43:08.910Z,4.10
2023-03-06T02:45:40.807Z,4.10
2023-03-06T02:48:09.413Z,4.10
2023-03-06T02:50:37.616Z,4.10
2023-03-06T02:53:06.605Z,4.10
2023-03-06T02:55:35.419Z,4.10
2023-03-06T02:58:06.270Z,4.10
2023-03-06T03:00:35.402Z,4.10
2023-03-06T03:03:03.980Z,4.10
2023-03-06T03:05:32.529Z,4.10
2023-03-06T03:08:01.072Z,4.10
2023-03-06T03:10:29.393Z,4.10
2023-03-06T03:12:58.735Z,4.10
2023-03-06T03:15:28.439Z,4.00
2023-03-06T03:17:56.741Z,4.10
2023-03-06T03:20:25.346Z,4.10
2023-03-06T03:22:55.937Z,4.10
2023-03-06T03:25:25.274Z,4.10
2023-03-06T03:27:53.707Z,4.00
2023-03-06T03:30:22.216Z,4.10
2023-03-06T03:32:51.953Z,4.00
2023-03-06T03:35:20.293Z,4.00
2023-03-06T03:37:48.518Z,4.00
2023-03-06T03:40:16.769Z,4.00
2023-03-06T03:42:45.605Z,4.00
2023-03-06T03:45:14.085Z,4.00
2023-03-06T03:47:42.414Z,4.00
2023-03-06T03:50:13.856Z,3.90
2023-03-06T03:52:42.601Z,4.00
2023-03-06T03:55:11.460Z,4.00
2023-03-06T03:57:39.670Z,4.00
2023-03-06T04:00:12.139Z,4.00
2023-03-06T04:02:40.405Z,4.00
2023-03-06T04:05:09.428Z,3.90
2023-03-06T04:07:39.200Z,3.90
2023-03-06T04:10:09.062Z,3.90
2023-03-06T04:12:37.906Z,3.90
2023-03-06T04:15:08.423Z,3.90
2023-03-06T04:17:36.709Z,3.90
2023-03-06T04:20:05.849Z,3.90
2023-03-06T04:22:34.080Z,3.90
2023-03-06T04:25:03.727Z,3.90
2023-03-06T04:27:31.899Z,3.80
2023-03-06T04:30:00.253Z,3.90
2023-03-06T04:32:29.033Z,3.80
2023-03-06T04:34:57.444Z,3.80
2023-03-06T04:37:28.561Z,3.80
2023-03-06T04:39:58.004Z,3.60
2023-03-06T04:42:27.741Z,3.60
2023-03-06T04:44:55.967Z,3.70
2023-03-06T04:47:24.170Z,3.70
2023-03-06T04:49:52.802Z,3.60
2023-03-06T04:52:21.024Z,3.50
2023-03-06T04:54:49.169Z,3.50
2023-03-06T04:57:17.405Z,3.50
2023-03-06T04:59:47.001Z,3.50
2023-03-06T05:02:15.663Z,3.50
2023-03-06T05:04:44.360Z,3.70
2023-03-06T05:07:12.705Z,3.50
2023-03-06T05:09:40.880Z,3.50
2023-03-06T05:12:09.801Z,3.50
2023-03-06T05:14:38.287Z,3.40
2023-03-06T05:17:08.052Z,3.50
2023-03-06T05:19:36.402Z,3.50
2023-03-06T05:22:04.850Z,3.50
2023-03-06T05:24:33.040Z,3.50
2023-03-06T05:27:01.248Z,3.50
2023-03-06T05:29:29.774Z,3.50
2023-03-06T05:31:59.012Z,3.50
2023-03-06T05:34:28.564Z,3.50
2023-03-06T05:36:59.192Z,3.50
2023-03-06T05:39:28.703Z,3.50
2023-03-06T05:41:56.919Z,3.50
2023-03-06T05:44:25.665Z,3.50
2023-03-06T05:46:54.262Z,3.50
2023-03-06T05:49:22.414Z,3.60
2023-03-06T05:51:52.021Z,3.50
2023-03-06T05:54:20.310Z,3.50
2023-03-06T05:56:48.579Z,3.50
2023-03-06T05:59:16.843Z,3.40
2023-03-06T06:01:45.407Z,3.40
2023-03-06T06:04:13.714Z,3.40
2023-03-06T06:06:41.947Z,3.30
2023-03-06T06:09:13.854Z,3.30
2023-03-06T06:11:42.202Z,3.30
2023-03-06T06:14:10.534Z,3.30
2023-03-06T06:16:39.067Z,3.40
2023-03-06T06:19:07.301Z,3.20
2023-03-06T06:21:35.712Z,3.10
2023-03-06T06:24:04.178Z,3.10
2023-03-06T06:26:34.043Z,3.10
2023-03-06T06:29:02.305Z,3.10
2023-03-06T06:31:30.611Z,3.10
2023-03-06T06:33:58.884Z,3.10
2023-03-06T06:36:27.085Z,3.10
2023-03-06T06:38:55.447Z,3.10
2023-03-06T06:41:46.231Z,3.10
2023-03-06T06:44:16.192Z,3.10
2023-03-06T06:49:34.982Z,3.10
2023-03-06T06:52:03.546Z,3.10
2023-03-06T06:54:31.817Z,3.10
2023-03-06T06:57:00.147Z,3.10
2023-03-06T06:59:29.654Z,3.10
2023-03-06T07:01:57.935Z,3.10
2023-03-06T07:04:26.253Z,3.10
2023-03-06T07:06:56.958Z,3.10
2023-03-06T07:09:25.256Z,3.20
2023-03-06T07:11:53.530Z,3.10
2023-03-06T07:14:22.152Z,3.20
2023-03-06T07:16:51.955Z,3.20
2023-03-06T07:19:20.148Z,3.20
2023-03-06T07:21:48.482Z,3.30
2023-03-06T07:24:16.712Z,3.30
2023-03-06T07:26:47.854Z,3.40
2023-03-06T07:29:16.576Z,3.50
2023-03-06T07:31:45.215Z,3.60
2023-03-06T07:34:16.063Z,3.60
2023-03-06T07:36:44.304Z,3.70
2023-03-06T07:39:13.046Z,3.70
2023-03-06T07:41:41.340Z,3.80
2023-03-06T07:44:09.703Z,3.70
2023-03-06T07:46:38.011Z,3.80
2023-03-06T07:49:06.326Z,3.90
2023-03-06T07:51:36.061Z,4.00
2023-03-06T07:54:04.551Z,4.00
2023-03-06T07:56:35.052Z,4.20
2023-03-06T07:59:03.556Z,4.30
2023-03-06T08:01:31.846Z,4.40
2023-03-06T08:04:02.036Z,4.40
2023-03-06T08:06:30.515Z,4.50
2023-03-06T08:09:00.650Z,4.70
2023-03-06T08:11:31.377Z,4.70
2023-03-06T08:14:00.649Z,4.70
2023-03-06T08:16:30.504Z,4.90
2023-03-06T08:19:01.331Z,4.90
2023-03-06T08:21:30.157Z,5.10
2023-03-06T08:24:00.323Z,5.00
2023-03-06T08:26:30.928Z,4.90
2023-03-06T08:29:02.180Z,5.10
2023-03-06T08:31:32.840Z,5.20
2023-03-06T08:34:03.214Z,5.30
2023-03-06T08:36:31.672Z,5.40
2023-03-06T08:39:01.256Z,5.70
2023-03-06T08:41:29.729Z,5.80
2023-03-06T08:43:58.053Z,6.00
2023-03-06T08:46:28.035Z,6.10
2023-03-06T08:48:56.612Z,6.10
2023-03-06T08:51:25.892Z,6.10
2023-03-06T08:53:54.153Z,6.30
2023-03-06T08:56:25.812Z,6.20
2023-03-06T08:58:55.202Z,6.20
2023-03-06T09:01:25.441Z,6.30
2023-03-06T09:03:58.151Z,6.30
2023-03-06T09:06:27.993Z,6.20
2023-03-06T09:08:57.423Z,6.30
2023-03-06T09:11:28.547Z,6.10
2023-03-06T09:13:58.081Z,6.20
2023-03-06T09:18:55.660Z,6.30
2023-03-06T09:21:25.051Z,6.40
2023-03-06T09:23:53.542Z,6.50
2023-03-06T09:26:27.990Z,6.50
2023-03-06T09:29:02.761Z,6.30
2023-03-06T09:31:32.169Z,6.40
2023-03-06T09:34:00.337Z,6.50
2023-03-06T09:36:28.654Z,6.60
2023-03-06T09:38:57.034Z,6.50
2023-03-06T09:41:30.316Z,6.30
2023-03-06T09:44:06.317Z,6.40
2023-03-06T09:46:52.157Z,6.50
2023-03-06T09:49:30.983Z,6.50
2023-03-06T09:52:11.605Z,6.40
2023-03-06T09:54:46.643Z,6.40
2023-03-06T09:57:21.310Z,6.50
2023-03-06T09:59:54.197Z,6.50
2023-03-06T10:02:28.332Z,6.60
2023-03-06T10:05:01.543Z,6.50
2023-03-06T10:07:41.837Z,6.60
2023-03-06T10:10:18.556Z,6.50
2023-03-06T10:12:56.684Z,6.60
2023-03-06T10:15:30.100Z,6.60
2023-03-06T10:17:58.685Z,6.70
2023-03-06T10:20:29.325Z,6.70
2023-03-06T10:23:10.483Z,6.60
2023-03-06T10:25:47.626Z,6.70
2023-03-06T10:28:19.208Z,6.70
2023-03-06T10:30:55.728Z,6.70
2023-03-06T10:33:34.692Z,6.60
2023-03-06T10:36:03.091Z,6.90
2023-03-06T10:38:38.407Z,6.90
2023-03-06T10:41:09.983Z,6.80
2023-03-06T10:43:40.397Z,6.90
2023-03-06T10:46:12.374Z,7.10
2023-03-06T10:48:42.816Z,7.00
2023-03-06T10:51:19.117Z,7.10
2023-03-06T10:53:54.260Z,7.30
2023-03-06T10:56:34.048Z,7.20
2023-03-06T10:59:15.033Z,7.00
2023-03-06T11:01:46.243Z,7.30
2023-03-06T11:04:24.173Z,7.50
2023-03-06T11:07:07.728Z,7.50
2023-03-06T11:09:38.111Z,7.40
2023-03-06T11:12:28.209Z,7.20
2023-03-06T11:15:21.057Z,7.20
2023-03-06T11:18:00.145Z,7.40
2023-03-06T11:20:48.544Z,7.70
2023-03-06T11:23:20.601Z,7.80
2023-03-06T11:25:51.852Z,7.90
2023-03-06T11:28:25.020Z,8.10
2023-03-06T11:30:56.446Z,7.70
2023-03-06T11:33:30.816Z,7.80
2023-03-06T11:36:04.353Z,7.80
2023-03-06T11:38:43.528Z,7.50
2023-03-06T11:41:24.021Z,7.70
2023-03-06T11:44:01.138Z,7.70
2023-03-06T11:46:34.375Z,7.80
2023-03-06T11:49:13.749Z,7.90
2023-03-06T11:51:43.965Z,7.80
2023-03-06T11:54:14.607Z,8.00
2023-03-06T11:56:51.092Z,8.20
2023-03-06T11:59:47.517Z,8.20
2023-03-06T12:04:58.477Z,8.30
2023-03-06T12:07:32.527Z,8.70
2023-03-06T12:10:14.410Z,8.80
2023-03-06T12:13:03.353Z,9.00
2023-03-06T12:15:46.002Z,8.90
2023-03-06T12:18:32.704Z,8.50
2023-03-06T12:21:08.010Z,8.70
2023-03-06T12:23:56.807Z,8.70
2023-03-06T12:26:46.035Z,8.50
2023-03-06T12:29:39.607Z,8.30
2023-03-06T12:32:22.316Z,8.40
2023-03-06T12:35:08.838Z,8.30
2023-03-06T12:37:51.215Z,8.50
2023-03-06T12:40:41.408Z,8.70
2023-03-06T12:43:39.958Z,8.60
2023-03-06T12:46:13.973Z,8.10
2023-03-06T12:48:44.692Z,8.10
2023-03-06T12:51:16.305Z,8.30
2023-03-06T12:53:47.737Z,8.30
2023-03-06T12:56:18.788Z,8.50
2023-03-06T12:58:50.998Z,8.50
2023-03-06T13:02:00.146Z,8.50
2023-03-06T13:05:01.474Z,8.50
2023-03-06T13:07:52.877Z,8.70
2023-03-06T13:10:27.843Z,8.80
2023-03-06T13:12:57.863Z,8.80
2023-03-06T13:15:43.401Z,8.60
2023-03-06T13:18:57.674Z,8.80
2023-03-06T13:21:46.652Z,8.60
2023-03-06T13:24:21.310Z,8.70
2023-03-06T13:26:59.982Z,8.70
2023-03-06T13:30:04.288Z,8.90
2023-03-06T13:32:35.192Z,8.90
2023-03-06T13:35:24.153Z,8.90
2023-03-06T13:37:53.937Z,8.70
2023-03-06T13:40:33.812Z,8.40
2023-03-06T13:43:23.464Z,8.60
2023-03-06T13:45:52.329Z,8.60
2023-03-06T13:48:44.119Z,8.60
2023-03-06T13:51:23.401Z,8.60
2023-03-06T13:54:24.854Z,8.60
2023-03-06T13:57:25.357Z,8.30
2023-03-06T14:00:19.063Z,8.20
2023-03-06T14:03:09.987Z,8.10
2023-03-06T14:05:43.891Z,8.10
2023-03-06T14:08:16.486Z,8.10
2023-03-06T14:10:46.253Z,8.30
2023-03-06T14:13:20.938Z,8.80
2023-03-06T14:15:52.539Z,9.60
2023-03-06T14:18:24.404Z,9.30
2023-03-06T14:20:57.597Z,9.60
2023-03-06T14:23:28.767Z,10.00
2023-03-06T14:26:08.875Z,10.40
2023-03-06T14:28:37.812Z,10.70
2023-03-06T14:31:08.143Z,10.80
2023-03-06T14:33:43.997Z,10.50
2023-03-06T14:36:15.391Z,10.20
2023-03-06T14:38:49.881Z,10.20
2023-03-06T14:41:30.012Z,10.20
2023-03-06T14:44:19.424Z,10.00
2023-03-06T14:46:51.094Z,9.80
2023-03-06T14:49:21.726Z,10.00
2023-03-06T14:51:52.185Z,10.00
2023-03-06T14:54:23.236Z,9.90
2023-03-06T14:56:55.084Z,9.70
2023-03-06T14:59:26.503Z,9.40
2023-03-06T15:02:00.313Z,9.40
2023-03-06T15:04:35.238Z,9.30
2023-03-06T15:07:09.253Z,9.40
2023-03-06T15:09:38.949Z,9.20
2023-03-06T15:12:29.706Z,9.00
2023-03-06T15:15:00.260Z,9.10
2023-03-06T15:17:33.282Z,8.90
2023-03-06T15:20:02.487Z,9.00
2023-03-06T15:22:33.689Z,9.00
2023-03-06T15:25:22.450Z,9.00
2023-03-06T15:27:52.346Z,8.90
2023-03-06T15:30:27.435Z,8.50
2023-03-06T15:35:57.079Z,8.50
2023-03-06T15:38:31.075Z,8.40
2023-03-06T15:41:00.927Z,8.50
2023-03-06T15:43:30.368Z,8.40
2023-03-06T15:46:01.888Z,8.30
2023-03-06T15:48:30.128Z,8.20
2023-03-06T15:50:59.923Z,8.20
2023-03-06T15:53:28.518Z,8.20
2023-03-06T15:55:57.295Z,8.20
2023-03-06T15:58:26.975Z,8.10
2023-03-06T16:00:55.198Z,8.10
2023-03-06T16:03:23.539Z,8.10
2023-03-06T16:05:51.841Z,7.90
2023-03-06T16:08:21.498Z,7.90
2023-03-06T16:10:50.997Z,7.90
2023-03-06T16:13:23.253Z,7.90
2023-03-06T16:15:52.435Z,7.90
2023-03-06T16:18:20.879Z,7.80
2023-03-06T16:20:49.199Z,7.80
2023-03-06T16:23:17.536Z,7.80
2023-03-06T16:25:50.353Z,7.80
2023-03-06T16:28:19.306Z,7.70
2023-03-06T16:30:47.641Z,7.70
2023-03-06T16:33:16.134Z,7.60
2023-03-06T16:35:46.776Z,7.60
2023-03-06T16:38:15.786Z,7.60
2023-03-06T16:40:44.017Z,7.50
2023-03-06T16:43:16.195Z,7.50
2023-03-06T16:45:45.083Z,7.40
2023-03-06T16:48:18.300Z,7.40
2023-03-06T16:50:46.627Z,7.40
2023-03-06T16:53:15.477Z,7.40
2023-03-06T16:55:43.831Z,7.40
2023-03-06T16:58:13.752Z,7.30
2023-03-06T17:00:42.401Z,7.30
2023-03-06T17:03:10.601Z,7.30
2023-03-06T17:05:39.638Z,7.30
2023-03-06T17:08:07.942Z,7.20
2023-03-06T17:10:36.294Z,7.20
2023-03-06T17:13:05.331Z,7.20
2023-03-06T17:15:35.134Z,7.20
2023-03-06T17:18:03.459Z,7.20
2023-03-06T17:20:31.741Z,7.20
2023-03-06T17:23:00.192Z,7.10
2023-03-06T17:25:28.364Z,7.10
2023-03-06T17:27:56.539Z,7.10
2023-03-06T17:30:24.768Z,7.10
2023-03-06T17:32:54.397Z,7.10
2023-03-06T17:35:22.563Z,7.10
2023-03-06T17:37:50.805Z,7.10
2023-03-06T17:40:19.208Z,7.10
2023-03-06T17:42:47.610Z,7.10
2023-03-06T17:45:16.030Z,7.10
2023-03-06T17:47:44.763Z,7.00
2023-03-06T17:50:15.043Z,7.00
2023-03-06T17:52:43.356Z,7.00
2023-03-06T17:55:11.959Z,7.00
2023-03-06T17:57:40.263Z,7.00
2023-03-06T18:00:10.902Z,7.00
2023-03-06T18:02:39.666Z,7.00
2023-03-06T18:05:09.244Z,7.00
2023-03-06T18:07:39.205Z,6.90
2023-03-06T18:10:08.000Z,6.90
2023-03-06T18:12:36.536Z,6.80
2023-03-06T18:15:05.374Z,6.70
2023-03-06T18:17:34.232Z,6.60
2023-03-06T18:20:02.588Z,6.60
2023-03-06T18:22:30.952Z,6.50
2023-03-06T18:25:00.530Z,6.50
2023-03-06T18:27:28.713Z,6.50
2023-03-06T18:29:58.519Z,6.40
2023-03-06T18:32:26.875Z,6.40
2023-03-06T18:34:55.904Z,6.50
2023-03-06T18:37:25.018Z,6.40
2023-03-06T18:39:53.247Z,6.30
2023-03-06T18:42:23.047Z,6.30
2023-03-06T18:44:51.323Z,6.30
2023-03-06T18:47:19.538Z,6.20
2023-03-06T18:49:47.738Z,6.10
2023-03-06T18:52:16.350Z,6.10
2023-03-06T18:54:44.712Z,6.10
2023-03-06T18:57:12.918Z,6.00
2023-03-06T18:59:42.587Z,6.00
2023-03-06T19:02:11.902Z,6.00
2023-03-06T19:04:40.164Z,5.90
2023-03-06T19:07:08.448Z,5.90
2023-03-06T19:09:37.146Z,5.90
2023-03-06T19:12:06.321Z,5.90
2023-03-06T19:14:36.385Z,5.90
2023-03-06T19:17:06.430Z,5.80
2023-03-06T19:19:34.987Z,5.80
2023-03-06T19:22:03.815Z,5.80
2023-03-06T19:24:32.157Z,5.80
2023-03-06T19:27:00.467Z,5.80
2023-03-06T19:29:28.765Z,5.70
2023-03-06T19:31:58.953Z,5.70
2023-03-06T19:34:28.615Z,5.70
2023-03-06T19:36:56.984Z,5.70
2023-03-06T19:39:25.767Z,5.70
2023-03-06T19:41:54.085Z,5.70
2023-03-06T19:44:23.362Z,5.70
2023-03-06T19:46:51.703Z,5.80
2023-03-06T19:49:22.270Z,5.80
2023-03-06T19:51:52.509Z,5.80
2023-03-06T19:54:23.456Z,5.80
2023-03-06T19:56:51.849Z,5.80
2023-03-06T19:59:20.347Z,5.90
2023-03-06T20:01:48.563Z,5.90
2023-03-06T20:04:19.163Z,5.90
2023-03-06T20:06:50.340Z,5.90
2023-03-06T20:09:20.588Z,6.00
2023-03-06T20:11:48.728Z,6.00
2023-03-06T20:14:18.532Z,6.00
2023-03-06T20:16:47.045Z,6.00
2023-03-06T20:19:15.309Z,6.00
2023-03-06T20:21:43.900Z,6.10
2023-03-06T20:24:16.803Z,6.10
2023-03-06T20:26:47.730Z,6.10
2023-03-06T20:29:16.442Z,6.10
2023-03-06T20:31:44.888Z,6.10
2023-03-06T20:34:14.514Z,6.10
2023-03-06T20:36:42.819Z,6.20
2023-03-06T20:39:14.002Z,6.20
2023-03-06T20:41:42.785Z,6.20
2023-03-06T20:44:16.210Z,6.20
2023-03-06T20:46:45.185Z,6.20
2023-03-06T20:49:14.410Z,6.20
2023-03-06T20:51:43.191Z,6.20
2023-03-06T20:54:14.038Z,6.10
2023-03-06T20:56:44.840Z,6.10
2023-03-06T20:59:15.149Z,6.10
2023-03-06T21:01:44.684Z,6.10
2023-03-06T21:04:15.098Z,6.10
2023-03-06T21:06:46.975Z,6.10
2023-03-06T21:09:17.307Z,6.10
2023-03-06T21:11:46.368Z,6.00
2023-03-06T21:14:16.167Z,6.00
2023-03-06T21:16:45.104Z,6.00
2023-03-06T21:19:13.501Z,6.00
2023-03-06T21:21:42.095Z,6.00
2023-03-06T21:24:10.539Z,5.90
2023-03-06T21:26:38.857Z,6.00
2023-03-06T21:29:07.233Z,5.90
2023-03-06T21:31:37.168Z,5.90
2023-03-06T21:34:06.415Z,5.90
2023-03-06T21:36:35.052Z,5.90
2023-03-06T21:39:06.336Z,5.90
2023-03-06T21:41:35.264Z,5.90
2023-03-06T21:44:05.667Z,5.90
2023-03-06T21:46:34.769Z,5.90
2023-03-06T21:49:06.513Z,5.80
2023-03-06T21:51:35.170Z,5.90
2023-03-06T21:54:03.933Z,5.80
2023-03-06T21:56:33.471Z,5.80
2023-03-06T21:59:01.976Z,5.80
2023-03-06T22:01:30.657Z,5.80
2023-03-06T22:04:00.213Z,5.80
2023-03-06T22:06:31.426Z,5.80
2023-03-06T22:09:01.208Z,5.80
2023-03-06T22:11:31.259Z,5.80
2023-03-06T22:13:59.717Z,5.70
2023-03-06T22:16:28.692Z,5.70
2023-03-06T22:18:57.305Z,5.70
2023-03-06T22:21:25.691Z,5.70
2023-03-06T22:23:57.909Z,5.70
2023-03-06T22:26:27.044Z,5.60
2023-03-06T22:28:55.410Z,5.60
2023-03-06T22:31:25.685Z,5.60
2023-03-06T22:33:54.616Z,5.60
2023-03-06T22:36:24.321Z,5.60
2023-03-06T22:38:57.518Z,5.60
2023-03-06T22:41:26.957Z,5.60
2023-03-06T22:43:57.202Z,5.60
2023-03-06T22:46:26.227Z,5.70
2023-03-06T22:48:56.548Z,5.60
2023-03-06T22:51:25.306Z,5.60
2023-03-06T22:53:55.442Z,5.60
2023-03-06T22:56:24.032Z,5.60
2023-03-06T22:58:52.703Z,5.60
2023-03-06T23:01:23.576Z,5.60
2023-03-06T23:03:53.469Z,5.50
2023-03-06T23:06:23.900Z,5.50
2023-03-06T23:08:53.689Z,5.50
2023-03-06T23:11:24.449Z,5.60
2023-03-06T23:13:52.932Z,5.60
2023-03-06T23:16:21.528Z,5.50
2023-03-06T23:18:52.459Z,5.60
2023-03-06T23:21:23.434Z,5.60
2023-03-06T23:23:54.084Z,5.50
2023-03-06T23:26:25.630Z,5.60
2023-03-06T23:28:54.553Z,5.50
2023-03-06T23:31:25.080Z,5.50
2023-03-06T23:33:53.394Z,5.50
2023-03-06T23:36:21.944Z,5.50
2023-03-06T23:38:50.199Z,5.50
2023-03-06T23:41:20.179Z,5.50
2023-03-06T23:43:51.955Z,5.50
2023-03-06T23:46:21.163Z,5.50
2023-03-06T23:48:49.313Z,5.50
2023-03-06T23:51:19.568Z,5.50
2023-03-06T23:53:49.165Z,5.50
2023-03-06T23:56:17.384Z,5.50
2023-03-06T23:58:46.509Z,5.50
